sensor_id;sensor_type;location;lat;lon;timestamp;P1;durP1;ratioP1;P2;durP2;ratioP2
75285;SDS011;63879;46.064;14.532;2022-11-15T07:00:29;50.88;;;23.05;;
75285;SDS011;63879;46.064;14.532;2022-11-15T07:02:54;47.47;;;21.52;;
75285;SDS011;63879;46.064;14.532;2022-11-15T07:05:23;51.28;;;23.85;;
75285;SDS011;63879;46.064;14.532;2022-11-15T07:07:52;47.73;;;19.90;;
75285;SDS011;63879;46.064;14.532;2022-11-15T07:10:18;46.78;;;21.02;;
75285;SDS011;63879;46.064;14.532;2022-11-15T07:12:49;44.35;;;20.90;;
75285;SDS011;63879;46.064;14.532;2022-11-15T07:15:24;47.33;;;20.95;;
75285;SDS011;63879;46.064;14.532;2022-11-15T07:17:50;45.42;;;20.35;;
75285;SDS011;63879;46.064;14.532;2022-11-15T07:20:16;46.43;;;22.60;;
75285;SDS011;63879;46.064;14.532;2022-11-15T07:22:42;47.80;;;20.20;;
75285;SDS011;63879;46.064;14.532;2022-11-15T07:25:08;47.35;;;22.00;;
75285;SDS011;63879;46.064;14.532;2022-11-15T07:27:36;41.67;;;20.00;;
75285;SDS011;63879;46.064;14.532;2022-11-15T07:30:02;47.83;;;21.05;;
75285;SDS011;63879;46.064;14.532;2022-11-15T07:32:28;46.15;;;21.38;;
75285;SDS011;63879;46.064;14.532;2022-11-15T07:34:53;43.63;;;19.90;;
75285;SDS011;63879;46.064;14.532;2022-11-15T07:37:19;45.90;;;22.07;;
75285;SDS011;63879;46.064;14.532;2022-11-15T07:39:44;52.38;;;21.45;;
75285;SDS011;63879;46.064;14.532;2022-11-15T07:42:09;52.53;;;23.40;;
75285;SDS011;63879;46.064;14.532;2022-11-15T07:44:53;48.28;;;22.73;;
75285;SDS011;63879;46.064;14.532;2022-11-15T07:47:19;47.00;;;22.53;;
75285;SDS011;63879;46.064;14.532;2022-11-15T07:49:45;43.85;;;21.90;;
75285;SDS011;63879;46.064;14.532;2022-11-15T07:52:11;42.88;;;20.33;;
75285;SDS011;63879;46.064;14.532;2022-11-15T07:54:36;43.97;;;20.25;;
75285;SDS011;63879;46.064;14.532;2022-11-15T07:57:02;44.67;;;20.75;;
75285;SDS011;63879;46.064;14.532;2022-11-15T07:59:27;44.03;;;18.80;;
75285;SDS011;63879;46.064;14.532;2022-11-15T08:01:53;45.30;;;19.95;;
75285;SDS011;63879;46.064;14.532;2022-11-15T08:04:18;37.60;;;19.60;;
75285;SDS011;63879;46.064;14.532;2022-11-15T08:06:44;43.92;;;19.23;;
75285;SDS011;63879;46.064;14.532;2022-11-15T08:09:09;45.20;;;19.17;;
75285;SDS011;63879;46.064;14.532;2022-11-15T08:11:34;45.50;;;18.93;;
75285;SDS011;63879;46.064;14.532;2022-11-15T08:14:00;42.35;;;19.02;;
75285;SDS011;63879;46.064;14.532;2022-11-15T08:16:25;42.42;;;19.60;;
75285;SDS011;63879;46.064;14.532;2022-11-15T08:18:51;44.83;;;19.40;;
75285;SDS011;63879;46.064;14.532;2022-11-15T08:21:20;53.00;;;20.23;;
75285;SDS011;63879;46.064;14.532;2022-11-15T08:23:46;39.25;;;18.80;;
75285;SDS011;63879;46.064;14.532;2022-11-15T08:26:11;44.33;;;18.95;;
75285;SDS011;63879;46.064;14.532;2022-11-15T08:28:37;44.33;;;20.47;;
75285;SDS011;63879;46.064;14.532;2022-11-15T08:31:03;47.40;;;21.02;;
75285;SDS011;63879;46.064;14.532;2022-11-15T08:33:32;45.33;;;19.83;;
75285;SDS011;63879;46.064;14.532;2022-11-15T08:36:00;40.97;;;18.70;;
75285;SDS011;63879;46.064;14.532;2022-11-15T08:38:26;42.95;;;19.73;;
75285;SDS011;63879;46.064;14.532;2022-11-15T08:40:54;42.50;;;19.20;;
75285;SDS011;63879;46.064;14.532;2022-11-15T08:43:25;43.92;;;18.67;;
75285;SDS011;63879;46.064;14.532;2022-11-15T08:45:50;38.10;;;18.07;;
75285;SDS011;63879;46.064;14.532;2022-11-15T08:48:16;35.00;;;17.03;;
75285;SDS011;63879;46.064;14.532;2022-11-15T08:50:41;36.33;;;16.23;;
75285;SDS011;63879;46.064;14.532;2022-11-15T08:53:08;34.95;;;17.38;;
75285;SDS011;63879;46.064;14.532;2022-11-15T08:55:37;39.45;;;18.67;;
75285;SDS011;63879;46.064;14.532;2022-11-15T08:58:04;35.17;;;17.15;;
75285;SDS011;63879;46.064;14.532;2022-11-15T09:00:29;39.25;;;17.17;;
75285;SDS011;63879;46.064;14.532;2022-11-15T09:02:55;39.28;;;18.23;;
75285;SDS011;63879;46.064;14.532;2022-11-15T09:05:20;34.08;;;16.98;;
75285;SDS011;63879;46.064;14.532;2022-11-15T09:07:45;33.40;;;17.17;;
75285;SDS011;63879;46.064;14.532;2022-11-15T09:10:11;33.72;;;15.77;;
75285;SDS011;63879;46.064;14.532;2022-11-15T09:12:36;30.63;;;16.00;;
75285;SDS011;63879;46.064;14.532;2022-11-15T09:15:02;33.95;;;17.33;;
75285;SDS011;63879;46.064;14.532;2022-11-15T09:17:28;32.80;;;16.88;;
75285;SDS011;63879;46.064;14.532;2022-11-15T09:19:53;29.17;;;16.40;;
75285;SDS011;63879;46.064;14.532;2022-11-15T09:22:18;28.90;;;15.13;;
75285;SDS011;63879;46.064;14.532;2022-11-15T09:24:44;33.35;;;16.77;;
75285;SDS011;63879;46.064;14.532;2022-11-15T09:27:09;33.20;;;16.65;;
75285;SDS011;63879;46.064;14.532;2022-11-15T09:29:35;31.13;;;17.70;;
75285;SDS011;63879;46.064;14.532;2022-11-15T09:32:01;31.55;;;16.17;;
75285;SDS011;63879;46.064;14.532;2022-11-15T09:34:27;32.78;;;17.08;;
75285;SDS011;63879;46.064;14.532;2022-11-15T09:36:52;31.58;;;16.15;;
75285;SDS011;63879;46.064;14.532;2022-11-15T09:39:17;34.57;;;16.17;;
75285;SDS011;63879;46.064;14.532;2022-11-15T09:49:51;28.52;;;15.63;;
75285;SDS011;63879;46.064;14.532;2022-11-15T09:52:18;29.08;;;15.95;;
75285;SDS011;63879;46.064;14.532;2022-11-15T09:54:46;26.08;;;14.65;;
75285;SDS011;63879;46.064;14.532;2022-11-15T09:57:18;24.63;;;14.15;;
75285;SDS011;63879;46.064;14.532;2022-11-15T10:04:57;24.65;;;13.48;;
75285;SDS011;63879;46.064;14.532;2022-11-15T10:09:57;24.52;;;13.20;;
75285;SDS011;63879;46.064;14.532;2022-11-15T10:12:26;22.35;;;12.75;;
75285;SDS011;63879;46.064;14.532;2022-11-15T10:14:56;26.08;;;12.77;;
75285;SDS011;63879;46.064;14.532;2022-11-15T10:19:56;25.10;;;13.53;;
75285;SDS011;63879;46.064;14.532;2022-11-15T10:27:33;21.08;;;11.52;;
75285;SDS011;63879;46.064;14.532;2022-11-15T10:29:59;22.17;;;11.95;;
75285;SDS011;63879;46.064;14.532;2022-11-15T10:32:25;19.90;;;11.77;;
75285;SDS011;63879;46.064;14.532;2022-11-15T10:34:50;20.55;;;12.45;;
75285;SDS011;63879;46.064;14.532;2022-11-15T10:37:29;23.05;;;12.40;;
75285;SDS011;63879;46.064;14.532;2022-11-15T10:40:15;22.50;;;10.75;;
75285;SDS011;63879;46.064;14.532;2022-11-15T10:42:43;18.05;;;10.30;;
75285;SDS011;63879;46.064;14.532;2022-11-15T10:45:28;18.73;;;9.27;;
75285;SDS011;63879;46.064;14.532;2022-11-15T10:50:40;17.13;;;9.48;;
75285;SDS011;63879;46.064;14.532;2022-11-15T10:55:53;15.15;;;8.20;;
75285;SDS011;63879;46.064;14.532;2022-11-15T11:01:15;14.15;;;7.78;;
75285;SDS011;63879;46.064;14.532;2022-11-15T11:03:44;15.10;;;8.48;;
75285;SDS011;63879;46.064;14.532;2022-11-15T11:08:37;16.58;;;9.52;;
75285;SDS011;63879;46.064;14.532;2022-11-15T11:11:03;14.73;;;8.20;;
75285;SDS011;63879;46.064;14.532;2022-11-15T11:13:34;12.40;;;6.90;;
75285;SDS011;63879;46.064;14.532;2022-11-15T11:18:38;10.70;;;6.20;;
75285;SDS011;63879;46.064;14.532;2022-11-15T11:21:10;10.85;;;6.82;;
75285;SDS011;63879;46.064;14.532;2022-11-15T11:23:45;13.48;;;6.78;;
75285;SDS011;63879;46.064;14.532;2022-11-15T11:37:17;8.32;;;4.68;;
75285;SDS011;63879;46.064;14.532;2022-11-15T11:40:35;6.63;;;4.18;;
75285;SDS011;63879;46.064;14.532;2022-11-15T11:46:20;13.93;;;5.00;;
75285;SDS011;63879;46.064;14.532;2022-11-15T11:48:53;6.50;;;4.00;;
75285;SDS011;63879;46.064;14.532;2022-11-15T11:51:24;6.85;;;4.57;;
75285;SDS011;63879;46.064;14.532;2022-11-15T11:56:39;9.23;;;4.75;;
75285;SDS011;63879;46.064;14.532;2022-11-15T11:59:32;7.32;;;4.20;;
75285;SDS011;63879;46.064;14.532;2022-11-15T12:02:13;5.28;;;3.78;;
75285;SDS011;63879;46.064;14.532;2022-11-15T12:04:42;6.15;;;3.70;;
75285;SDS011;63879;46.064;14.532;2022-11-15T12:09:53;6.30;;;3.53;;
75285;SDS011;63879;46.064;14.532;2022-11-15T12:17:35;5.43;;;3.97;;
75285;SDS011;63879;46.064;14.532;2022-11-15T12:20:04;6.18;;;3.60;;
75285;SDS011;63879;46.064;14.532;2022-11-15T12:25:21;9.45;;;4.43;;
75285;SDS011;63879;46.064;14.532;2022-11-15T12:30:30;7.05;;;3.95;;
75285;SDS011;63879;46.064;14.532;2022-11-15T12:33:34;7.68;;;4.32;;
75285;SDS011;63879;46.064;14.532;2022-11-15T12:36:02;8.23;;;4.20;;
75285;SDS011;63879;46.064;14.532;2022-11-15T12:41:19;7.70;;;4.57;;
75285;SDS011;63879;46.064;14.532;2022-11-15T12:43:46;6.65;;;4.00;;
75285;SDS011;63879;46.064;14.532;2022-11-15T12:48:47;6.97;;;4.15;;
75285;SDS011;63879;46.064;14.532;2022-11-15T12:51:19;7.32;;;4.03;;
75285;SDS011;63879;46.064;14.532;2022-11-15T12:53:45;7.25;;;4.57;;
75285;SDS011;63879;46.064;14.532;2022-11-15T12:58:50;5.88;;;3.22;;
75285;SDS011;63879;46.064;14.532;2022-11-15T13:14:45;4.28;;;2.60;;
75285;SDS011;63879;46.064;14.532;2022-11-15T13:19:48;5.97;;;2.40;;
75285;SDS011;63879;46.064;14.532;2022-11-15T13:22:17;5.00;;;3.00;;
75285;SDS011;63879;46.064;14.532;2022-11-15T13:25:04;5.43;;;2.80;;
75285;SDS011;63879;46.064;14.532;2022-11-15T13:27:40;4.03;;;2.50;;
75285;SDS011;63879;46.064;14.532;2022-11-15T13:30:13;4.50;;;2.58;;
75285;SDS011;63879;46.064;14.532;2022-11-15T13:32:40;5.50;;;2.90;;
75285;SDS011;63879;46.064;14.532;2022-11-15T13:35:06;6.60;;;2.40;;
75285;SDS011;63879;46.064;14.532;2022-11-15T13:37:31;5.15;;;2.80;;
75285;SDS011;63879;46.064;14.532;2022-11-15T13:40:21;4.10;;;2.67;;
75285;SDS011;63879;46.064;14.532;2022-11-15T13:45:21;4.13;;;2.65;;
75285;SDS011;63879;46.064;14.532;2022-11-15T13:47:54;3.83;;;2.55;;
75285;SDS011;63879;46.064;14.532;2022-11-15T13:50:21;3.42;;;2.15;;
75285;SDS011;63879;46.064;14.532;2022-11-15T13:52:50;5.28;;;2.53;;
75285;SDS011;63879;46.064;14.532;2022-11-15T13:55:18;4.80;;;2.60;;
75285;SDS011;63879;46.064;14.532;2022-11-15T13:57:48;4.20;;;2.78;;
75285;SDS011;63879;46.064;14.532;2022-11-15T14:00:27;5.50;;;2.70;;
75285;SDS011;63879;46.064;14.532;2022-11-15T14:03:06;3.72;;;2.13;;
75285;SDS011;63879;46.064;14.532;2022-11-15T14:06:02;3.90;;;2.53;;
75285;SDS011;63879;46.064;14.532;2022-11-15T14:08:28;5.30;;;3.17;;
75285;SDS011;63879;46.064;14.532;2022-11-15T14:11:15;5.72;;;3.55;;
75285;SDS011;63879;46.064;14.532;2022-11-15T14:16:36;4.43;;;3.03;;
75285;SDS011;63879;46.064;14.532;2022-11-15T14:19:03;4.78;;;2.90;;
75285;SDS011;63879;46.064;14.532;2022-11-15T14:21:29;5.35;;;3.22;;
75285;SDS011;63879;46.064;14.532;2022-11-15T14:26:49;6.65;;;3.60;;
75285;SDS011;63879;46.064;14.532;2022-11-15T14:29:21;4.88;;;3.58;;
75285;SDS011;63879;46.064;14.532;2022-11-15T14:31:53;6.20;;;3.40;;
75285;SDS011;63879;46.064;14.532;2022-11-15T14:34:31;6.45;;;4.03;;
75285;SDS011;63879;46.064;14.532;2022-11-15T14:36:57;6.38;;;4.30;;
75285;SDS011;63879;46.064;14.532;2022-11-15T14:39:22;7.22;;;5.00;;
75285;SDS011;63879;46.064;14.532;2022-11-15T14:41:49;7.35;;;4.38;;
75285;SDS011;63879;46.064;14.532;2022-11-15T14:44:14;8.37;;;4.80;;
75285;SDS011;63879;46.064;14.532;2022-11-15T14:46:43;8.27;;;4.85;;
75285;SDS011;63879;46.064;14.532;2022-11-15T14:49:08;9.07;;;4.93;;
75285;SDS011;63879;46.064;14.532;2022-11-15T14:51:34;8.63;;;5.73;;
75285;SDS011;63879;46.064;14.532;2022-11-15T14:53:59;7.25;;;5.18;;
75285;SDS011;63879;46.064;14.532;2022-11-15T14:56:32;10.98;;;4.93;;
75285;SDS011;63879;46.064;14.532;2022-11-15T14:58:58;10.00;;;5.03;;
75285;SDS011;63879;46.064;14.532;2022-11-15T15:01:26;8.48;;;4.47;;
75285;SDS011;63879;46.064;14.532;2022-11-15T15:03:52;7.20;;;3.90;;
75285;SDS011;63879;46.064;14.532;2022-11-15T15:06:24;5.65;;;3.72;;
75285;SDS011;63879;46.064;14.532;2022-11-15T15:08:52;8.63;;;4.70;;
75285;SDS011;63879;46.064;14.532;2022-11-15T15:11:24;8.77;;;4.78;;
75285;SDS011;63879;46.064;14.532;2022-11-15T15:13:52;8.80;;;4.38;;
75285;SDS011;63879;46.064;14.532;2022-11-15T15:16:18;8.77;;;4.90;;
75285;SDS011;63879;46.064;14.532;2022-11-15T15:18:43;10.15;;;5.78;;
75285;SDS011;63879;46.064;14.532;2022-11-15T15:21:17;7.30;;;4.68;;
75285;SDS011;63879;46.064;14.532;2022-11-15T15:23:48;11.40;;;5.38;;
75285;SDS011;63879;46.064;14.532;2022-11-15T15:26:13;6.95;;;4.65;;
75285;SDS011;63879;46.064;14.532;2022-11-15T15:28:41;10.45;;;5.78;;
75285;SDS011;63879;46.064;14.532;2022-11-15T15:31:07;9.88;;;5.65;;
75285;SDS011;63879;46.064;14.532;2022-11-15T15:33:33;7.63;;;5.28;;
75285;SDS011;63879;46.064;14.532;2022-11-15T15:35:59;9.98;;;5.57;;
75285;SDS011;63879;46.064;14.532;2022-11-15T15:38:27;10.07;;;5.80;;
75285;SDS011;63879;46.064;14.532;2022-11-15T15:40:52;8.77;;;5.68;;
75285;SDS011;63879;46.064;14.532;2022-11-15T15:43:21;9.68;;;5.90;;
75285;SDS011;63879;46.064;14.532;2022-11-15T15:45:46;9.90;;;5.57;;
75285;SDS011;63879;46.064;14.532;2022-11-15T15:48:14;9.85;;;5.90;;
75285;SDS011;63879;46.064;14.532;2022-11-15T15:50:41;10.07;;;6.07;;
75285;SDS011;63879;46.064;14.532;2022-11-15T15:53:08;9.27;;;6.20;;
75285;SDS011;63879;46.064;14.532;2022-11-15T15:55:35;10.10;;;6.38;;
75285;SDS011;63879;46.064;14.532;2022-11-15T15:58:01;12.20;;;6.68;;
75285;SDS011;63879;46.064;14.532;2022-11-15T16:00:27;12.03;;;7.30;;
75285;SDS011;63879;46.064;14.532;2022-11-15T16:02:53;10.52;;;6.60;;
75285;SDS011;63879;46.064;14.532;2022-11-15T16:05:18;13.15;;;7.80;;
75285;SDS011;63879;46.064;14.532;2022-11-15T16:07:44;11.80;;;7.28;;
75285;SDS011;63879;46.064;14.532;2022-11-15T16:10:17;12.80;;;7.80;;
75285;SDS011;63879;46.064;14.532;2022-11-15T16:12:50;11.43;;;6.35;;
75285;SDS011;63879;46.064;14.532;2022-11-15T16:15:16;11.48;;;6.28;;
75285;SDS011;63879;46.064;14.532;2022-11-15T16:17:55;10.95;;;5.45;;
75285;SDS011;63879;46.064;14.532;2022-11-15T16:20:23;9.90;;;5.60;;
75285;SDS011;63879;46.064;14.532;2022-11-15T16:25:21;10.13;;;5.63;;
75285;SDS011;63879;46.064;14.532;2022-11-15T16:27:46;10.17;;;6.57;;
75285;SDS011;63879;46.064;14.532;2022-11-15T16:30:12;9.23;;;6.05;;
75285;SDS011;63879;46.064;14.532;2022-11-15T16:32:39;9.40;;;5.82;;
75285;SDS011;63879;46.064;14.532;2022-11-15T16:35:04;8.30;;;5.35;;
75285;SDS011;63879;46.064;14.532;2022-11-15T16:37:30;8.90;;;5.80;;
75285;SDS011;63879;46.064;14.532;2022-11-15T16:39:56;8.38;;;5.43;;
75285;SDS011;63879;46.064;14.532;2022-11-15T16:42:21;9.77;;;5.85;;
75285;SDS011;63879;46.064;14.532;2022-11-15T16:44:55;11.07;;;5.90;;
75285;SDS011;63879;46.064;14.532;2022-11-15T16:47:21;8.82;;;5.47;;
75285;SDS011;63879;46.064;14.532;2022-11-15T16:49:46;8.75;;;5.50;;
75285;SDS011;63879;46.064;14.532;2022-11-15T16:52:15;9.02;;;5.53;;
75285;SDS011;63879;46.064;14.532;2022-11-15T16:54:40;11.30;;;5.90;;
75285;SDS011;63879;46.064;14.532;2022-11-15T16:57:09;9.52;;;5.97;;
75285;SDS011;63879;46.064;14.532;2022-11-15T16:59:37;9.00;;;5.65;;
75285;SDS011;63879;46.064;14.532;2022-11-15T17:02:03;9.63;;;5.37;;
75285;SDS011;63879;46.064;14.532;2022-11-15T17:04:31;10.37;;;6.33;;
75285;SDS011;63879;46.064;14.532;2022-11-15T17:06:57;8.90;;;5.65;;
75285;SDS011;63879;46.064;14.532;2022-11-15T17:09:23;12.23;;;6.35;;
75285;SDS011;63879;46.064;14.532;2022-11-15T17:11:49;10.82;;;6.68;;
75285;SDS011;63879;46.064;14.532;2022-11-15T17:14:14;11.00;;;6.45;;
75285;SDS011;63879;46.064;14.532;2022-11-15T17:16:40;10.88;;;6.63;;
75285;SDS011;63879;46.064;14.532;2022-11-15T17:19:15;11.55;;;6.88;;
75285;SDS011;63879;46.064;14.532;2022-11-15T17:21:55;11.02;;;6.35;;
75285;SDS011;63879;46.064;14.532;2022-11-15T17:24:21;10.70;;;6.00;;
75285;SDS011;63879;46.064;14.532;2022-11-15T17:26:46;10.70;;;6.30;;
75285;SDS011;63879;46.064;14.532;2022-11-15T17:29:14;9.18;;;6.10;;
75285;SDS011;63879;46.064;14.532;2022-11-15T17:31:39;13.48;;;6.95;;
75285;SDS011;63879;46.064;14.532;2022-11-15T17:34:05;10.50;;;6.33;;
75285;SDS011;63879;46.064;14.532;2022-11-15T17:36:31;11.13;;;6.57;;
75285;SDS011;63879;46.064;14.532;2022-11-15T17:38:57;10.55;;;5.72;;
75285;SDS011;63879;46.064;14.532;2022-11-15T17:41:22;10.40;;;6.65;;
75285;SDS011;63879;46.064;14.532;2022-11-15T17:44:02;9.43;;;6.07;;
75285;SDS011;63879;46.064;14.532;2022-11-15T17:46:30;10.07;;;5.88;;
75285;SDS011;63879;46.064;14.532;2022-11-15T17:48:55;10.30;;;6.03;;
75285;SDS011;63879;46.064;14.532;2022-11-15T17:51:24;12.07;;;6.50;;
75285;SDS011;63879;46.064;14.532;2022-11-15T17:53:49;10.38;;;6.55;;
75285;SDS011;63879;46.064;14.532;2022-11-15T17:56:19;11.50;;;6.35;;
75285;SDS011;63879;46.064;14.532;2022-11-15T18:03:43;12.35;;;7.22;;
75285;SDS011;63879;46.064;14.532;2022-11-15T18:08:39;10.88;;;5.75;;
75285;SDS011;63879;46.064;14.532;2022-11-15T18:13:33;11.27;;;6.68;;
75285;SDS011;63879;46.064;14.532;2022-11-15T18:15:59;11.57;;;6.88;;
75285;SDS011;63879;46.064;14.532;2022-11-15T18:18:31;10.88;;;6.53;;
75285;SDS011;63879;46.064;14.532;2022-11-15T18:21:01;12.68;;;7.70;;
75285;SDS011;63879;46.064;14.532;2022-11-15T18:23:28;13.50;;;7.35;;
75285;SDS011;63879;46.064;14.532;2022-11-15T18:25:54;13.88;;;7.20;;
75285;SDS011;63879;46.064;14.532;2022-11-15T18:28:19;8.60;;;5.87;;
75285;SDS011;63879;46.064;14.532;2022-11-15T18:30:44;10.27;;;5.88;;
75285;SDS011;63879;46.064;14.532;2022-11-15T18:33:13;10.45;;;6.18;;
75285;SDS011;63879;46.064;14.532;2022-11-15T18:35:40;11.15;;;6.00;;
75285;SDS011;63879;46.064;14.532;2022-11-15T18:38:06;9.23;;;6.10;;
75285;SDS011;63879;46.064;14.532;2022-11-15T18:40:31;9.10;;;5.10;;
75285;SDS011;63879;46.064;14.532;2022-11-15T18:42:59;9.70;;;5.40;;
75285;SDS011;63879;46.064;14.532;2022-11-15T18:45:27;11.88;;;6.22;;
75285;SDS011;63879;46.064;14.532;2022-11-15T18:47:52;9.18;;;5.63;;
75285;SDS011;63879;46.064;14.532;2022-11-15T18:50:27;10.00;;;6.05;;
75285;SDS011;63879;46.064;14.532;2022-11-15T18:52:52;12.03;;;6.87;;
75285;SDS011;63879;46.064;14.532;2022-11-15T18:55:17;11.77;;;7.03;;
75285;SDS011;63879;46.064;14.532;2022-11-15T18:57:48;11.57;;;6.78;;
75285;SDS011;63879;46.064;14.532;2022-11-15T19:00:14;11.85;;;7.50;;
75285;SDS011;63879;46.064;14.532;2022-11-15T19:02:42;13.20;;;7.13;;
75285;SDS011;63879;46.064;14.532;2022-11-15T19:05:07;13.90;;;7.18;;
75285;SDS011;63879;46.064;14.532;2022-11-15T19:07:36;11.85;;;6.13;;
75285;SDS011;63879;46.064;14.532;2022-11-15T19:10:02;13.20;;;6.80;;
75285;SDS011;63879;46.064;14.532;2022-11-15T19:12:28;11.57;;;7.47;;
75285;SDS011;63879;46.064;14.532;2022-11-15T19:14:53;11.43;;;6.47;;
75285;SDS011;63879;46.064;14.532;2022-11-15T19:17:26;13.52;;;6.88;;
75285;SDS011;63879;46.064;14.532;2022-11-15T19:19:52;12.75;;;7.25;;
75285;SDS011;63879;46.064;14.532;2022-11-15T19:22:17;12.53;;;6.90;;
75285;SDS011;63879;46.064;14.532;2022-11-15T19:24:43;9.70;;;6.13;;
75285;SDS011;63879;46.064;14.532;2022-11-15T19:27:08;12.30;;;6.40;;
75285;SDS011;63879;46.064;14.532;2022-11-15T19:29:33;12.32;;;7.05;;
75285;SDS011;63879;46.064;14.532;2022-11-15T19:31:59;12.45;;;7.28;;
75285;SDS011;63879;46.064;14.532;2022-11-15T19:34:24;12.48;;;7.35;;
75285;SDS011;63879;46.064;14.532;2022-11-15T19:36:50;11.07;;;6.47;;
75285;SDS011;63879;46.064;14.532;2022-11-15T19:39:21;11.98;;;6.85;;
75285;SDS011;63879;46.064;14.532;2022-11-15T19:41:46;14.27;;;7.80;;
75285;SDS011;63879;46.064;14.532;2022-11-15T19:44:12;16.15;;;8.00;;
75285;SDS011;63879;46.064;14.532;2022-11-15T19:46:38;10.25;;;6.22;;
75285;SDS011;63879;46.064;14.532;2022-11-15T19:49:03;11.77;;;6.35;;
75285;SDS011;63879;46.064;14.532;2022-11-15T19:51:31;13.55;;;6.50;;
75285;SDS011;63879;46.064;14.532;2022-11-15T19:53:57;12.82;;;7.65;;
75285;SDS011;63879;46.064;14.532;2022-11-15T19:56:25;14.38;;;7.07;;
75285;SDS011;63879;46.064;14.532;2022-11-15T19:58:51;12.65;;;7.13;;
75285;SDS011;63879;46.064;14.532;2022-11-15T20:01:21;13.40;;;7.13;;
75285;SDS011;63879;46.064;14.532;2022-11-15T20:03:49;14.27;;;6.80;;
75285;SDS011;63879;46.064;14.532;2022-11-15T20:06:18;14.50;;;7.28;;
75285;SDS011;63879;46.064;14.532;2022-11-15T20:08:44;11.93;;;6.72;;
75285;SDS011;63879;46.064;14.532;2022-11-15T20:11:11;12.57;;;7.03;;
75285;SDS011;63879;46.064;14.532;2022-11-15T20:13:37;13.25;;;6.47;;
75285;SDS011;63879;46.064;14.532;2022-11-15T20:16:02;9.85;;;5.88;;
75285;SDS011;63879;46.064;14.532;2022-11-15T20:18:28;10.73;;;5.70;;
75285;SDS011;63879;46.064;14.532;2022-11-15T20:20:54;11.15;;;6.00;;
75285;SDS011;63879;46.064;14.532;2022-11-15T20:23:22;10.00;;;5.70;;
75285;SDS011;63879;46.064;14.532;2022-11-15T20:25:48;11.32;;;6.47;;
75285;SDS011;63879;46.064;14.532;2022-11-15T20:28:14;10.45;;;6.03;;
75285;SDS011;63879;46.064;14.532;2022-11-15T20:30:50;9.70;;;4.85;;
75285;SDS011;63879;46.064;14.532;2022-11-15T20:33:17;11.30;;;6.00;;
75285;SDS011;63879;46.064;14.532;2022-11-15T20:35:43;9.93;;;5.28;;
75285;SDS011;63879;46.064;14.532;2022-11-15T20:38:09;9.75;;;6.18;;
75285;SDS011;63879;46.064;14.532;2022-11-15T20:40:35;11.35;;;6.03;;
75285;SDS011;63879;46.064;14.532;2022-11-15T20:43:02;9.80;;;5.15;;
75285;SDS011;63879;46.064;14.532;2022-11-15T20:45:27;9.23;;;4.75;;
75285;SDS011;63879;46.064;14.532;2022-11-15T20:47:56;9.27;;;5.15;;
75285;SDS011;63879;46.064;14.532;2022-11-15T20:50:25;8.80;;;4.80;;
75285;SDS011;63879;46.064;14.532;2022-11-15T20:52:51;9.60;;;5.40;;
75285;SDS011;63879;46.064;14.532;2022-11-15T20:55:18;8.05;;;4.22;;
75285;SDS011;63879;46.064;14.532;2022-11-15T20:57:46;8.18;;;4.30;;
75285;SDS011;63879;46.064;14.532;2022-11-15T21:00:14;7.43;;;4.75;;
75285;SDS011;63879;46.064;14.532;2022-11-15T21:02:46;8.90;;;5.40;;
75285;SDS011;63879;46.064;14.532;2022-11-15T21:05:11;7.00;;;4.10;;
75285;SDS011;63879;46.064;14.532;2022-11-15T21:07:37;7.30;;;3.73;;
75285;SDS011;63879;46.064;14.532;2022-11-15T21:10:05;7.35;;;3.60;;
75285;SDS011;63879;46.064;14.532;2022-11-15T21:12:51;8.02;;;4.00;;
75285;SDS011;63879;46.064;14.532;2022-11-15T21:15:16;7.90;;;3.90;;
75285;SDS011;63879;46.064;14.532;2022-11-15T21:17:42;8.90;;;5.03;;
75285;SDS011;63879;46.064;14.532;2022-11-15T21:20:08;7.50;;;4.40;;
75285;SDS011;63879;46.064;14.532;2022-11-15T21:22:34;8.65;;;4.43;;
75285;SDS011;63879;46.064;14.532;2022-11-15T21:25:00;13.63;;;4.90;;
75285;SDS011;63879;46.064;14.532;2022-11-15T21:27:25;7.27;;;4.03;;
75285;SDS011;63879;46.064;14.532;2022-11-15T21:29:51;9.48;;;5.47;;
75285;SDS011;63879;46.064;14.532;2022-11-15T21:32:16;10.57;;;6.13;;
75285;SDS011;63879;46.064;14.532;2022-11-15T21:34:41;9.33;;;5.20;;
75285;SDS011;63879;46.064;14.532;2022-11-15T21:37:07;11.73;;;6.10;;
75285;SDS011;63879;46.064;14.532;2022-11-15T21:39:32;11.38;;;5.93;;
75285;SDS011;63879;46.064;14.532;2022-11-15T21:41:58;11.40;;;6.43;;
75285;SDS011;63879;46.064;14.532;2022-11-15T21:44:23;11.15;;;6.10;;
75285;SDS011;63879;46.064;14.532;2022-11-15T21:46:49;12.80;;;6.63;;
75285;SDS011;63879;46.064;14.532;2022-11-15T21:49:15;11.32;;;6.05;;
75285;SDS011;63879;46.064;14.532;2022-11-15T21:51:40;12.38;;;6.53;;
75285;SDS011;63879;46.064;14.532;2022-11-15T21:54:06;12.57;;;6.93;;
75285;SDS011;63879;46.064;14.532;2022-11-15T21:56:31;13.25;;;6.63;;
75285;SDS011;63879;46.064;14.532;2022-11-15T21:58:57;11.15;;;6.22;;
